Beroun, Minnesota
Current Conditions -  °F | °C
As of 8:36 AM on Thursday 18 Dec 2014 (Local Time) from KROS Reporting Station
Overcast Overcast  
Wind Chill: 19°   Ceiling: 1400
Heat Index: 19°   Visibility: 10mi
Dew Point: 17°   Wind: 0mph
Humidity: 89%   Direction: NA
Pressure: 30.3"   Gusts: NA
Location:  45.8356°N, 92.9649°W
Report Text: KROS 181436Z AUTO 00000KT 10SM OVC014 M07/M08 A3030 RMK AO2 T10701085
Loading
Personal Weather Stations






























Interactive Weather Map New forecast layout! Learn more

10-Day Weather Forecast

Advertisements
Track Severe Weather on mobile